Time;durP1;ratioP1;P1;durP2;ratioP2;P2;SDS_P1;SDS_P2;PMS_P1;PMS_P2;Temp;Humidity;BMP_temperature;BMP_pressure;BME280_temperature;BME280_humidity;BME280_pressure;Samples;Min_cycle;Max_cycle;Signal;HPM_P1;HPM_P2
2022/01/25 00:09:17;;;;;;;19.33;9.15;;;;;;;-12.26;66.44;101084.41;5040044;28;20073;-59
2022/01/25 00:25:59;;;;;;;21.95;9.63;;;;;;;-12.21;63.89;101078.13;5039389;28;20121;-58
2022/01/25 00:28:47;;;;;;;23.65;9.13;;;;;;;-12.37;64.66;101034.75;5039596;28;20084;-59
2022/01/25 00:31:18;;;;;;;23.08;9.45;;;;;;;-11.85;65.02;101082.03;5039236;28;20369;-59
2022/01/25 00:33:52;;;;;;;18.95;9.00;;;;;;;-12.02;65.02;101024.31;5039153;28;20049;-59
2022/01/25 00:36:26;;;;;;;15.93;7.20;;;;;;;-11.83;65.40;101027.59;5039192;28;20070;-59
2022/01/25 00:38:58;;;;;;;16.27;7.57;;;;;;;-11.30;65.38;101084.19;5039339;28;20319;-57
2022/01/25 00:41:28;;;;;;;15.25;7.53;;;;;;;-11.11;65.73;101084.03;5039312;28;20072;-59
2022/01/25 00:44:01;;;;;;;11.93;5.93;;;;;;;-10.88;65.93;101085.97;5039580;28;20413;-59
2022/01/25 00:46:32;;;;;;;10.75;5.57;;;;;;;-10.71;66.34;101083.91;5039417;28;20374;-58
2022/01/25 00:49:05;;;;;;;11.63;6.10;;;;;;;-10.53;65.83;101085.44;5039287;28;20084;-58
2022/01/25 00:54:31;;;;;;;9.50;5.20;;;;;;;-10.31;65.89;101077.00;5029070;28;20097;-59
2022/01/25 00:57:02;;;;;;;6.25;4.05;;;;;;;-10.36;65.96;101035.34;5038937;28;20081;-59
2022/01/25 00:59:34;;;;;;;8.05;4.30;;;;;;;-10.07;65.76;101062.88;5039062;28;20113;-60
2022/01/25 01:02:08;;;;;;;8.55;5.30;;;;;;;-10.05;66.06;101077.41;5038788;28;20084;-60
2022/01/25 01:04:42;;;;;;;8.48;4.63;;;;;;;-10.15;66.78;101085.03;5038621;28;20053;-59
2022/01/25 01:07:15;;;;;;;7.93;4.25;;;;;;;-10.46;67.35;101067.47;5038521;28;20046;-59
2022/01/25 01:09:49;;;;;;;9.82;4.07;;;;;;;-10.56;68.01;101090.19;5038716;28;20282;-59
2022/01/25 01:12:42;;;;;;;6.55;3.97;;;;;;;-11.13;69.07;100993.84;5038655;28;20049;-60
2022/01/25 01:15:22;;;;;;;6.78;4.20;;;;;;;-10.65;69.32;101074.31;5038816;28;20050;-59
2022/01/25 01:29:26;;;;;;;8.27;3.97;;;;;;;-9.83;67.73;101074.03;5038347;28;20084;-60
2022/01/25 01:32:06;;;;;;;7.25;4.07;;;;;;;-9.74;67.40;101069.69;5038367;28;20219;-59
2022/01/25 01:35:07;;;;;;;9.32;4.43;;;;;;;-9.64;67.43;101066.22;5038168;28;20118;-59
2022/01/25 01:43:29;;;;;;;6.05;3.90;;;;;;;-9.41;66.65;101060.38;5031966;28;20541;-59
2022/01/25 01:46:21;;;;;;;4.35;3.00;;;;;;;-9.58;66.69;101032.16;5037998;28;20132;-59
2022/01/25 01:48:55;;;;;;;9.32;5.20;;;;;;;-9.44;66.53;101047.50;5037905;28;20053;-59
2022/01/25 01:51:30;;;;;;;9.40;4.60;;;;;;;-9.46;65.88;101031.31;5037882;28;20068;-60
2022/01/25 01:54:05;;;;;;;8.60;4.07;;;;;;;-9.40;65.75;101041.91;5037796;28;20052;-59
2022/01/25 01:56:36;;;;;;;19.45;7.85;;;;;;;-9.45;65.45;101033.09;5037906;28;20053;-59
2022/01/25 01:59:10;;;;;;;11.95;5.65;;;;;;;-9.55;65.51;101011.28;5038056;28;20332;-59
2022/01/25 02:01:42;;;;;;;9.45;5.03;;;;;;;-9.32;65.54;101048.44;5037749;28;20045;-60
2022/01/25 02:04:14;;;;;;;9.63;4.82;;;;;;;-9.20;65.92;101040.88;5037758;28;20045;-59
2022/01/25 02:06:46;;;;;;;8.23;4.38;;;;;;;-9.01;65.78;101043.09;5037851;28;20105;-59
2022/01/25 02:09:18;;;;;;;9.38;3.28;;;;;;;-8.92;65.72;101034.53;5036976;28;20072;-59
2022/01/25 02:11:49;;;;;;;6.72;3.35;;;;;;;-8.98;65.60;101033.22;5029605;28;20329;-59
2022/01/25 02:14:19;;;;;;;6.97;3.53;;;;;;;-8.87;65.04;101017.16;5017729;28;20064;-59
2022/01/25 02:17:08;;;;;;;31.42;13.63;;;;;;;-8.76;64.37;101018.84;5021667;28;20105;-59
2022/01/25 02:22:34;;;;;;;6.05;3.53;;;;;;;-8.39;62.71;101025.66;4996382;28;20133;-58
2022/01/25 02:25:05;;;;;;;7.82;3.38;;;;;;;-8.29;61.96;101023.84;5026188;28;20379;-58
2022/01/25 02:27:35;;;;;;;6.20;3.63;;;;;;;-8.08;61.70;101021.09;5025345;28;20060;-58
2022/01/25 02:30:07;;;;;;;5.53;3.10;;;;;;;-7.96;60.96;101006.72;5024290;28;20049;-58
2022/01/25 02:32:38;;;;;;;7.03;3.45;;;;;;;-7.95;59.51;100998.31;5023997;28;20082;-60
2022/01/25 02:35:10;;;;;;;6.63;3.20;;;;;;;-7.93;59.02;101012.00;5024531;28;20068;-60
2022/01/25 02:37:42;;;;;;;6.47;3.20;;;;;;;-7.95;58.40;100993.25;5024200;28;20080;-60
2022/01/25 02:40:16;;;;;;;5.00;2.95;;;;;;;-7.78;58.12;100996.09;5023860;28;20053;-59
2022/01/25 02:42:47;;;;;;;4.07;2.60;;;;;;;-7.67;57.81;101007.84;5006958;28;20060;-60
2022/01/25 02:45:17;;;;;;;5.10;3.00;;;;;;;-7.60;57.38;101004.94;5024036;28;20069;-60
2022/01/25 02:50:36;;;;;;;5.90;3.05;;;;;;;-7.41;56.96;100999.47;5023848;28;20513;-60
2022/01/25 02:53:09;;;;;;;8.00;3.13;;;;;;;-7.32;57.06;101004.25;5024199;28;20120;-61
2022/01/25 02:55:41;;;;;;;5.50;3.70;;;;;;;-7.46;56.88;100996.63;5024163;28;20085;-60
2022/01/25 02:58:13;;;;;;;4.43;2.95;;;;;;;-7.64;56.68;100996.25;5024151;28;20335;-61
2022/01/25 03:00:43;;;;;;;5.07;2.50;;;;;;;-7.86;56.18;100993.91;5023872;28;20060;-59
2022/01/25 03:03:14;;;;;;;6.05;3.03;;;;;;;-8.16;57.01;100977.44;5023910;28;20060;-59
2022/01/25 03:05:45;;;;;;;6.95;4.20;;;;;;;-8.17;57.57;100995.94;5023720;28;20340;-60
2022/01/25 03:08:18;;;;;;;3.47;2.78;;;;;;;-8.36;57.68;100988.72;5023795;28;20056;-60
2022/01/25 03:10:48;;;;;;;4.15;2.80;;;;;;;-8.60;57.79;100946.47;5023852;28;20073;-60
2022/01/25 03:13:24;;;;;;;5.72;3.78;;;;;;;-8.20;58.20;100989.78;5025377;28;20206;-59
2022/01/25 03:16:00;;;;;;;7.88;2.90;;;;;;;-8.03;57.46;100985.13;5023387;28;20041;-60
2022/01/25 03:18:45;;;;;;;4.32;2.72;;;;;;;-8.29;56.32;100922.44;5023411;28;20057;-59
2022/01/25 03:21:37;;;;;;;5.20;2.72;;;;;;;-8.11;56.64;100970.13;5023379;28;20042;-60
2022/01/25 03:24:10;;;;;;;4.15;3.10;;;;;;;-7.93;56.05;100981.56;5024338;28;20124;-59
2022/01/25 03:26:41;;;;;;;3.55;2.65;;;;;;;-7.79;56.04;100984.16;5024357;28;20053;-60
2022/01/25 03:29:11;;;;;;;4.53;2.75;;;;;;;-7.67;56.18;100974.84;5025931;28;20050;-59
2022/01/25 03:31:42;;;;;;;3.47;2.63;;;;;;;-7.56;55.65;100968.84;5027075;28;20338;-60
2022/01/25 03:34:13;;;;;;;3.35;2.58;;;;;;;-7.46;54.78;100966.16;5026916;28;20057;-61
2022/01/25 03:36:45;;;;;;;4.38;2.80;;;;;;;-7.59;53.54;100948.31;5027261;28;20072;-60
2022/01/25 03:39:17;;;;;;;7.40;2.65;;;;;;;-7.57;53.16;100954.38;5026905;28;20156;-61
2022/01/25 03:41:48;;;;;;;5.18;2.92;;;;;;;-7.45;52.88;100957.75;5026772;28;20235;-60
2022/01/25 03:44:19;;;;;;;2.88;2.47;;;;;;;-7.46;52.99;100966.16;5026936;28;20085;-60
2022/01/25 03:47:03;;;;;;;5.90;3.08;;;;;;;-7.69;53.76;100925.66;5026862;28;20117;-60
2022/01/25 03:49:51;;;;;;;6.43;2.65;;;;;;;-7.75;54.03;100945.53;5026849;28;20512;-59
2022/01/25 03:52:28;;;;;;;5.90;3.00;;;;;;;-7.89;54.18;100953.06;5026862;28;20065;-59
2022/01/25 03:55:03;;;;;;;3.08;2.78;;;;;;;-7.86;53.97;100952.44;5026580;28;20263;-59
2022/01/25 03:57:34;;;;;;;7.00;3.08;;;;;;;-7.73;54.05;100959.22;5027042;28;20053;-59
2022/01/25 04:00:07;;;;;;;3.75;2.53;;;;;;;-7.97;54.30;100944.06;5026468;28;20056;-59
2022/01/25 04:02:45;;;;;;;4.18;2.90;;;;;;;-8.09;54.21;100954.25;5027006;28;20390;-59
2022/01/25 04:05:21;;;;;;;3.28;2.50;;;;;;;-8.03;54.79;100953.81;5026544;28;20101;-60
2022/01/25 04:07:52;;;;;;;5.70;3.53;;;;;;;-8.00;55.22;100948.94;5026523;28;20053;-60
2022/01/25 04:10:29;;;;;;;6.22;2.85;;;;;;;-8.08;55.34;100934.88;5026554;28;20348;-60
2022/01/25 04:13:00;;;;;;;4.75;2.83;;;;;;;-8.04;54.94;100946.97;5026262;28;20055;-60
2022/01/25 04:15:31;;;;;;;6.00;2.80;;;;;;;-8.04;54.81;100941.88;5026051;28;20058;-59
2022/01/25 04:18:19;;;;;;;7.45;2.63;;;;;;;-8.01;55.19;100947.19;5026026;28;20193;-59
2022/01/25 04:20:58;;;;;;;6.68;2.92;;;;;;;-7.97;55.17;100928.84;5026119;28;20054;-59
2022/01/25 04:26:18;;;;;;;6.38;3.33;;;;;;;-7.65;54.86;100937.78;5026074;28;20065;-60
2022/01/25 04:28:49;;;;;;;5.18;2.90;;;;;;;-7.63;54.71;100938.75;5026046;28;20057;-59
2022/01/25 04:31:20;;;;;;;5.70;3.30;;;;;;;-7.25;54.72;100945.50;5026307;28;20060;-60
2022/01/25 04:34:11;;;;;;;4.30;2.70;;;;;;;-7.09;53.90;100930.47;5025936;28;20057;-59
2022/01/25 04:48:49;;;;;;;8.80;4.05;;;;;;;-6.86;53.68;100941.22;5026106;28;20063;-59
2022/01/25 04:51:22;;;;;;;3.83;2.60;;;;;;;-7.18;53.50;100937.50;5025449;28;20045;-59
2022/01/25 04:53:58;;;;;;;3.08;2.38;;;;;;;-7.30;53.94;100941.78;5025620;28;20087;-58
2022/01/25 04:56:35;;;;;;;5.80;2.90;;;;;;;-7.39;53.82;100936.94;5025467;28;20060;-59
2022/01/25 04:59:09;;;;;;;7.20;3.10;;;;;;;-7.38;53.99;100934.53;5025329;28;20057;-59
2022/01/25 05:01:41;;;;;;;7.80;3.10;;;;;;;-7.38;54.16;100921.84;5027243;28;20111;-59
2022/01/25 05:04:18;;;;;;;5.70;2.90;;;;;;;-7.43;54.03;100925.72;4998472;28;20213;-60
2022/01/25 05:06:51;;;;;;;5.53;2.80;;;;;;;-7.34;54.44;100939.81;5025169;28;20064;-60
2022/01/25 05:09:22;;;;;;;4.03;2.95;;;;;;;-7.43;54.52;100935.00;5025074;28;20311;-59
2022/01/25 05:11:52;;;;;;;4.57;3.05;;;;;;;-7.49;54.70;100939.66;5025689;28;20339;-60
2022/01/25 05:14:32;;;;;;;7.53;3.30;;;;;;;-7.58;55.14;100939.94;5025627;28;20096;-59
2022/01/25 05:17:05;;;;;;;4.47;2.80;;;;;;;-7.65;55.07;100937.78;5025067;28;20068;-59
2022/01/25 05:22:37;;;;;;;3.88;2.72;;;;;;;-7.88;55.33;100919.34;5025394;28;20065;-59
2022/01/25 05:25:09;;;;;;;4.03;2.80;;;;;;;-7.78;55.44;100941.16;5025678;28;20077;-59
2022/01/25 05:27:40;;;;;;;5.53;3.05;;;;;;;-7.73;56.16;100938.94;5024867;28;20147;-58
2022/01/25 05:30:14;;;;;;;4.07;3.15;;;;;;;-7.84;56.37;100921.31;5024482;28;20064;-60
2022/01/25 05:32:44;;;;;;;5.18;2.92;;;;;;;-7.73;56.17;100938.94;5024954;28;20058;-58
2022/01/25 05:35:15;;;;;;;7.32;3.50;;;;;;;-7.83;55.30;100953.50;5025247;28;20263;-59
2022/01/25 05:37:45;;;;;;;7.15;3.00;;;;;;;-7.90;55.05;100937.78;5025135;28;20049;-59
2022/01/25 05:40:27;;;;;;;10.38;5.03;;;;;;;-7.93;54.57;100951.13;5024329;28;20336;-58
2022/01/25 05:45:58;;;;;;;4.25;2.83;;;;;;;-8.11;54.48;100909.28;5025357;28;20328;-59
2022/01/25 05:48:30;;;;;;;4.22;3.03;;;;;;;-7.89;54.56;100952.19;5024945;28;20099;-59
2022/01/25 05:51:01;;;;;;;8.10;3.47;;;;;;;-8.58;54.27;100833.44;5023768;28;20104;-58
2022/01/25 05:53:32;;;;;;;4.45;2.95;;;;;;;-7.98;54.10;100937.25;5024525;28;20228;-58
2022/01/25 05:56:03;;;;;;;5.20;2.88;;;;;;;-7.89;54.20;100944.59;5024990;28;20258;-57
2022/01/25 05:58:34;;;;;;;4.75;2.90;;;;;;;-7.92;54.13;100947.81;5025070;28;20435;-59
2022/01/25 06:01:06;;;;;;;4.90;2.63;;;;;;;-7.99;53.88;100940.53;5023895;28;20251;-59
2022/01/25 06:03:40;;;;;;;5.97;2.88;;;;;;;-8.04;53.73;100946.97;5019320;28;20339;-60
2022/01/25 06:06:11;;;;;;;4.50;2.97;;;;;;;-8.01;53.64;100952.28;5025160;28;20340;-59
2022/01/25 06:08:42;;;;;;;16.73;5.25;;;;;;;-8.15;53.32;100942.81;5025443;28;20064;-59
2022/01/25 06:11:13;;;;;;;30.40;8.77;;;;;;;-8.16;53.74;100957.16;5023699;28;20334;-60
2022/01/25 06:13:44;;;;;;;18.15;6.70;;;;;;;-8.17;53.93;100954.50;5024319;28;20328;-59
2022/01/25 06:16:16;;;;;;;15.63;5.72;;;;;;;-8.14;53.53;100959.78;5024038;28;20092;-58
2022/01/25 06:18:47;;;;;;;10.52;4.20;;;;;;;-8.21;53.31;100962.66;5024868;28;20053;-59
2022/01/25 06:21:17;;;;;;;6.85;3.65;;;;;;;-8.18;53.84;100973.03;5024524;28;20064;-58
2022/01/25 06:23:48;;;;;;;5.03;3.30;;;;;;;-8.17;53.84;100964.66;5023775;28;20101;-59
2022/01/25 06:26:19;;;;;;;4.70;2.60;;;;;;;-8.42;54.15;100929.13;5024247;28;20046;-59
2022/01/25 06:28:50;;;;;;;4.00;2.78;;;;;;;-8.16;54.14;100961.31;5023910;28;20348;-59
2022/01/25 06:31:22;;;;;;;5.28;3.20;;;;;;;-8.22;53.90;100961.78;5023967;28;20131;-59
2022/01/25 06:33:53;;;;;;;5.35;2.78;;;;;;;-8.30;54.24;100957.84;5024913;28;20365;-58
2022/01/25 06:36:23;;;;;;;9.95;4.93;;;;;;;-8.35;54.96;100965.13;5024191;28;20061;-57
2022/01/25 06:38:54;;;;;;;22.75;7.88;;;;;;;-8.41;55.25;100969.81;5023989;28;20057;-58
2022/01/25 06:41:28;;;;;;;8.43;4.82;;;;;;;-8.50;55.30;100964.09;5024791;28;20769;-58
2022/01/25 06:43:59;;;;;;;11.75;4.47;;;;;;;-8.57;55.03;100972.88;5024550;28;20332;-59
2022/01/25 06:46:31;;;;;;;10.55;5.80;;;;;;;-8.96;54.82;100930.38;5024153;28;20445;-58
2022/01/25 06:49:02;;;;;;;12.90;5.78;;;;;;;-8.80;54.61;100972.91;5024129;28;20107;-58
2022/01/25 06:51:33;;;;;;;9.82;5.13;;;;;;;-8.87;55.17;100976.63;5023931;28;20057;-58
2022/01/25 06:54:04;;;;;;;10.32;5.43;;;;;;;-9.00;55.87;100966.41;5024880;28;20052;-58
2022/01/25 06:56:36;;;;;;;11.57;5.45;;;;;;;-9.08;55.54;100957.34;5024407;28;20049;-59
2022/01/25 06:59:07;;;;;;;8.90;4.22;;;;;;;-9.20;55.58;100986.06;5025498;28;20045;-59
2022/01/25 07:01:39;;;;;;;8.10;4.70;;;;;;;-9.30;55.65;100978.56;5025637;28;20092;-59
2022/01/25 07:04:10;;;;;;;10.25;5.00;;;;;;;-9.48;55.74;100977.16;5026264;28;20081;-60
2022/01/25 07:06:41;;;;;;;8.88;4.25;;;;;;;-9.64;56.30;100978.56;5028368;28;20053;-62
2022/01/25 07:09:12;;;;;;;11.68;4.47;;;;;;;-9.81;56.56;100981.44;5028975;28;20402;-58
2022/01/25 07:11:42;;;;;;;6.00;4.22;;;;;;;-10.18;56.78;100955.00;5027733;28;20112;-58
2022/01/25 07:14:13;;;;;;;11.60;6.70;;;;;;;-10.36;57.46;100972.19;5028363;28;20064;-59
2022/01/25 07:16:46;;;;;;;16.10;8.93;;;;;;;-10.63;58.21;100981.91;5028299;28;20061;-58
2022/01/25 07:19:17;;;;;;;9.18;6.03;;;;;;;-11.10;60.03;100996.63;5027531;28;20282;-58
2022/01/25 07:21:48;;;;;;;30.05;18.67;;;;;;;-11.64;61.55;100968.63;5026900;28;20053;-58
2022/01/25 07:24:18;;;;;;;50.58;30.80;;;;;;;-11.66;62.23;100997.88;5027148;28;20088;-59
2022/01/25 07:26:50;;;;;;;41.90;21.13;;;;;;;-11.96;63.18;101004.66;5027167;28;20069;-60
2022/01/25 07:29:27;;;;;;;16.90;7.70;;;;;;;-12.50;64.09;100971.47;5027188;28;20449;-60
2022/01/25 07:32:00;;;;;;;12.52;6.32;;;;;;;-12.56;65.66;101011.22;5026752;28;20061;-60
2022/01/25 07:34:41;;;;;;;42.35;17.98;;;;;;;-12.94;66.65;101011.25;5026514;28;20091;-59
2022/01/25 07:37:13;;;;;;;74.25;23.00;;;;;;;-13.23;68.63;101017.09;5026733;28;20057;-58
2022/01/25 07:39:47;;;;;;;81.60;29.17;;;;;;;-13.51;68.57;101019.66;5025837;28;20065;-59
2022/01/25 07:42:21;;;;;;;61.05;22.52;;;;;;;-13.58;69.11;101019.84;5026424;28;20053;-58
2022/01/25 07:44:54;;;;;;;66.88;26.52;;;;;;;-13.58;69.46;101027.38;5026500;28;20084;-58
2022/01/25 07:47:27;;;;;;;44.20;15.00;;;;;;;-13.49;69.89;101025.72;5026215;28;20041;-57
2022/01/25 07:50:00;;;;;;;25.38;10.77;;;;;;;-13.39;70.48;101034.09;5026371;28;20064;-58
2022/01/25 07:52:31;;;;;;;28.42;10.82;;;;;;;-13.56;70.03;101027.53;5026706;28;20064;-58
2022/01/25 07:55:02;;;;;;;19.13;10.55;;;;;;;-13.53;70.70;101023.66;5026101;28;20050;-59
2022/01/25 07:57:32;;;;;;;8.18;5.00;;;;;;;-13.62;70.91;101030.38;5026340;28;20120;-59
2022/01/25 08:00:04;;;;;;;7.07;4.55;;;;;;;-13.56;72.29;101040.97;5026385;28;20058;-58
2022/01/25 08:02:36;;;;;;;19.80;10.13;;;;;;;-13.58;72.42;101042.47;5027145;28;20068;-59
2022/01/25 08:05:13;;;;;;;9.52;5.15;;;;;;;-13.64;72.09;101031.84;5027476;28;20057;-59
2022/01/25 08:07:53;;;;;;;30.92;13.57;;;;;;;-13.67;72.14;101046.66;5027402;28;20053;-58
2022/01/25 08:10:24;;;;;;;8.15;5.80;;;;;;;-13.96;72.38;101032.28;5025525;28;20050;-58
2022/01/25 08:13:04;;;;;;;4.10;3.67;;;;;;;-14.27;72.67;101045.25;5026071;28;20307;-58
2022/01/25 08:15:35;;;;;;;47.67;31.38;;;;;;;-14.42;73.05;101048.06;5024249;28;20121;-58
2022/01/25 08:18:24;;;;;;;58.42;32.25;;;;;;;-14.52;73.82;101045.44;5025683;28;20058;-58
2022/01/25 08:21:08;;;;;;;43.47;19.42;;;;;;;-14.68;74.15;101042.22;5024127;28;20350;-58
2022/01/25 08:23:43;;;;;;;14.48;10.10;;;;;;;-14.90;75.38;101040.16;5030612;28;20049;-58
2022/01/25 08:26:30;;;;;;;8.18;6.32;;;;;;;-14.90;75.60;101046.78;5026095;28;20087;-57
2022/01/25 08:29:05;;;;;;;16.27;10.95;;;;;;;-14.97;75.71;101046.91;5026219;28;20060;-58
2022/01/25 08:31:52;;;;;;;7.57;6.25;;;;;;;-15.03;76.54;101039.69;5025941;28;20108;-58
2022/01/25 08:34:45;;;;;;;6.40;4.82;;;;;;;-15.44;76.08;100949.72;5025769;28;20041;-58
2022/01/25 08:37:32;;;;;;;10.32;7.28;;;;;;;-14.86;75.54;101042.22;5013458;28;20081;-59
2022/01/25 08:40:17;;;;;;;10.60;6.53;;;;;;;-15.31;75.67;101009.44;5014670;28;20054;-59
2022/01/25 08:42:52;;;;;;;8.13;6.40;;;;;;;-15.13;75.98;101055.47;5025264;28;20058;-60
2022/01/25 08:45:23;;;;;;;11.73;8.75;;;;;;;-15.25;76.37;101065.19;5025157;28;20073;-58
2022/01/25 08:47:54;;;;;;;9.32;6.55;;;;;;;-15.28;76.26;101062.38;5027633;28;20053;-58
2022/01/25 08:50:39;;;;;;;4.93;3.80;;;;;;;-15.33;76.14;101061.03;5023595;28;20081;-58
2022/01/25 08:53:40;;;;;;;6.45;4.30;;;;;;;-15.33;76.06;101066.03;5026162;28;20053;-60
2022/01/25 08:56:25;;;;;;;13.60;6.78;;;;;;;-15.35;75.91;101067.50;5024777;28;20045;-58
2022/01/25 08:59:12;;;;;;;21.95;9.02;;;;;;;-15.26;76.26;101068.44;4980980;28;20112;-58
2022/01/25 09:01:43;;;;;;;44.40;16.02;;;;;;;-15.00;75.44;101085.13;4981583;28;20296;-59
2022/01/25 09:04:14;;;;;;;20.60;9.57;;;;;;;-14.90;74.68;101090.34;4979225;28;20101;-58
2022/01/25 09:06:46;;;;;;;15.57;7.57;;;;;;;-15.00;74.23;101092.66;4978637;28;20073;-58
2022/01/25 09:09:17;;;;;;;13.23;7.38;;;;;;;-15.17;74.54;101090.09;4981003;28;20275;-57
2022/01/25 09:11:48;;;;;;;8.10;5.65;;;;;;;-15.32;74.45;101092.91;4978954;28;20042;-58
2022/01/25 09:14:19;;;;;;;27.65;10.05;;;;;;;-15.43;74.69;101098.44;4982131;28;20275;-60
2022/01/25 09:16:50;;;;;;;37.95;20.25;;;;;;;-15.52;75.00;101107.53;4981499;28;20113;-58
2022/01/25 09:19:21;;;;;;;18.77;11.30;;;;;;;-15.51;75.24;101092.69;4978506;28;20345;-60
2022/01/25 09:21:53;;;;;;;10.25;7.18;;;;;;;-15.44;75.38;101101.69;4981787;28;20046;-59
2022/01/25 09:24:24;;;;;;;14.43;7.82;;;;;;;-15.56;75.22;101097.97;4982169;28;20046;-58
2022/01/25 09:26:55;;;;;;;10.02;5.68;;;;;;;-15.73;75.60;101102.19;4982024;28;20053;-58
2022/01/25 09:29:25;;;;;;;11.15;5.32;;;;;;;-16.00;75.58;101084.38;4982373;28;20049;-58
2022/01/25 09:31:56;;;;;;;10.65;5.63;;;;;;;-16.16;75.81;101082.84;4981867;28;20105;-59
2022/01/25 09:34:27;;;;;;;7.97;5.90;;;;;;;-15.72;76.01;101114.00;4982622;28;20070;-58
2022/01/25 09:36:59;;;;;;;8.07;5.85;;;;;;;-15.79;75.46;101116.63;5008859;28;20056;-59
2022/01/25 09:39:30;;;;;;;14.25;6.50;;;;;;;-15.90;75.54;101117.13;5024107;28;20053;-58
2022/01/25 09:42:03;;;;;;;10.60;5.90;;;;;;;-16.06;75.19;101121.31;5024694;28;20051;-57
2022/01/25 09:44:35;;;;;;;6.55;4.63;;;;;;;-16.06;75.55;101123.84;5024755;28;20412;-59
2022/01/25 09:47:06;;;;;;;5.97;4.60;;;;;;;-15.92;75.65;101113.63;5024557;28;20061;-59
2022/01/25 09:49:39;;;;;;;4.88;3.75;;;;;;;-15.99;75.62;101117.09;5026135;28;20793;-59
2022/01/25 09:52:11;;;;;;;5.72;3.92;;;;;;;-16.02;75.72;101110.88;5025605;28;20053;-59
2022/01/25 09:54:42;;;;;;;6.00;3.97;;;;;;;-16.03;75.79;101129.16;5026645;28;20053;-59
2022/01/25 09:57:15;;;;;;;5.95;4.05;;;;;;;-16.05;75.83;101120.59;5024881;28;20083;-60
2022/01/25 09:59:46;;;;;;;6.90;4.10;;;;;;;-16.02;75.68;101125.91;5024768;28;20259;-59
2022/01/25 10:02:40;;;;;;;6.72;4.43;;;;;;;-16.16;75.29;101122.88;5024565;28;20085;-59
2022/01/25 10:05:23;;;;;;;6.13;3.30;;;;;;;-16.36;75.58;101117.44;5024899;28;20057;-60
2022/01/25 10:08:00;;;;;;;3.47;3.17;;;;;;;-16.62;76.27;101107.22;5024062;28;20053;-58
2022/01/25 10:10:32;;;;;;;3.85;2.88;;;;;;;-16.56;76.88;101112.88;5024279;28;20402;-59
2022/01/25 10:13:14;;;;;;;4.13;3.63;;;;;;;-16.59;77.07;101128.44;5024378;28;20124;-58
2022/01/25 10:15:45;;;;;;;4.00;3.35;;;;;;;-16.61;77.13;101116.50;5024460;28;20054;-57
2022/01/25 10:18:23;;;;;;;7.20;3.60;;;;;;;-16.63;77.19;101118.84;5023976;28;20129;-59
2022/01/25 10:20:54;;;;;;;4.85;3.40;;;;;;;-16.64;77.18;101124.59;5025104;28;20084;-58
2022/01/25 10:23:31;;;;;;;3.85;3.45;;;;;;;-16.74;76.92;101116.84;5025180;28;20045;-59
2022/01/25 10:26:04;;;;;;;9.82;6.90;;;;;;;-16.86;76.92;101115.59;5025278;28;20080;-58
2022/01/25 10:28:35;;;;;;;6.40;4.43;;;;;;;-16.66;77.25;101131.03;5023917;28;20046;-58
2022/01/25 10:31:07;;;;;;;9.27;4.53;;;;;;;-16.61;77.20;101082.38;5024073;28;20400;-58
2022/01/25 10:33:43;;;;;;;5.82;3.80;;;;;;;-16.24;77.11;101123.72;5024394;28;20663;-59
2022/01/25 10:36:35;;;;;;;6.97;3.78;;;;;;;-16.02;76.58;101120.88;5024018;28;20038;-57
2022/01/25 10:39:07;;;;;;;5.55;3.63;;;;;;;-15.82;75.81;101135.44;5025774;28;20057;-58
2022/01/25 10:41:38;;;;;;;4.15;3.20;;;;;;;-15.96;74.28;101131.53;5028384;28;20053;-58
2022/01/25 10:44:10;;;;;;;9.25;5.07;;;;;;;-16.29;72.47;101134.88;5028277;28;20053;-58
2022/01/25 10:46:41;;;;;;;12.63;5.82;;;;;;;-16.48;71.95;101131.19;5028319;28;20073;-60
2022/01/25 10:49:15;;;;;;;11.38;5.40;;;;;;;-16.86;71.13;101131.47;5027890;28;20046;-59
2022/01/25 10:51:48;;;;;;;14.45;6.55;;;;;;;-17.08;71.78;101123.31;5027583;28;20121;-58
2022/01/25 10:54:24;;;;;;;12.75;6.22;;;;;;;-17.10;72.39;101128.88;5027993;28;20091;-58
2022/01/25 10:56:57;;;;;;;11.77;6.35;;;;;;;-17.38;73.20;101077.59;5027147;28;20064;-58
2022/01/25 10:59:29;;;;;;;15.82;6.88;;;;;;;-17.09;73.49;101129.06;5027954;28;20225;-59
2022/01/25 11:02:02;;;;;;;10.48;6.43;;;;;;;-17.46;73.78;101062.69;5026133;28;20398;-56
2022/01/25 11:04:37;;;;;;;11.23;5.75;;;;;;;-17.17;73.87;101119.84;5027806;28;20056;-60
2022/01/25 11:07:10;;;;;;;16.40;7.43;;;;;;;-17.33;74.12;101108.94;5027366;28;20153;-59
2022/01/25 11:09:47;;;;;;;17.00;7.43;;;;;;;-17.33;74.26;101143.91;5027264;28;20045;-58
2022/01/25 11:12:19;;;;;;;14.00;6.90;;;;;;;-17.41;73.87;101096.53;5026528;28;20045;-58
2022/01/25 11:14:56;;;;;;;19.08;6.07;;;;;;;-17.32;74.09;101115.72;5026734;28;20061;-59
2022/01/25 11:17:28;;;;;;;7.28;5.47;;;;;;;-17.63;73.77;101103.31;5026580;28;20113;-58
2022/01/25 11:20:00;;;;;;;9.88;5.78;;;;;;;-17.54;74.44;101107.50;5027119;28;20124;-59
2022/01/25 11:22:31;;;;;;;8.75;6.00;;;;;;;-17.78;74.59;101115.75;5026733;28;20085;-59
2022/01/25 11:25:07;;;;;;;3.95;3.53;;;;;;;-17.72;74.78;101091.44;5026692;28;20109;-59
2022/01/25 11:27:38;;;;;;;5.70;3.67;;;;;;;-17.58;74.64;101116.31;5026521;28;20101;-58
2022/01/25 11:30:13;;;;;;;5.80;3.53;;;;;;;-17.47;74.93;101105.88;5027122;28;20224;-59
2022/01/25 11:32:46;;;;;;;7.18;4.75;;;;;;;-17.54;74.78;101088.44;5025922;28;20045;-59
2022/01/25 11:35:22;;;;;;;6.35;4.45;;;;;;;-17.46;74.75;101122.63;5028451;28;20355;-58
2022/01/25 11:37:54;;;;;;;4.57;4.07;;;;;;;-17.57;75.07;101108.06;5027352;28;20331;-58
2022/01/25 11:40:30;;;;;;;4.70;3.35;;;;;;;-17.57;74.93;101118.06;5027894;28;20053;-60
2022/01/25 11:43:03;;;;;;;4.72;4.30;;;;;;;-17.67;75.02;101115.28;5028253;28;20068;-59
2022/01/25 11:45:41;;;;;;;9.95;5.82;;;;;;;-18.10;75.55;101055.78;5028119;28;20061;-60
2022/01/25 11:48:20;;;;;;;8.65;4.78;;;;;;;-17.63;75.89;101122.41;5026483;28;20050;-58
2022/01/25 11:50:50;;;;;;;7.10;5.30;;;;;;;-17.34;76.03;101127.13;5035256;28;20244;-58
2022/01/25 11:53:25;;;;;;;6.95;5.15;;;;;;;-17.42;75.63;101084.78;5037985;28;20065;-58
2022/01/25 11:55:57;;;;;;;6.40;4.90;;;;;;;-17.08;75.05;101128.31;5039669;28;20359;-58
2022/01/25 11:58:30;;;;;;;6.13;4.55;;;;;;;-17.04;74.73;101112.94;5040030;28;20056;-57
2022/01/25 12:01:03;;;;;;;5.00;3.50;;;;;;;-16.96;73.55;101139.63;5039843;28;20057;-58
2022/01/25 12:03:37;;;;;;;5.65;3.90;;;;;;;-16.97;73.30;101152.84;5040058;28;20368;-58
2022/01/25 12:06:18;;;;;;;11.23;4.25;;;;;;;-17.47;72.24;101065.91;5039851;28;20116;-58
2022/01/25 12:09:05;;;;;;;;;;;;;;;-17.20;71.51;101144.50;5040269;28;20081;-58
2022/01/25 12:11:44;;;;;;;10.88;4.35;;;;;;;-17.42;71.23;101144.72;5039572;28;19972;-59
2022/01/25 12:14:24;;;;;;;9.07;4.30;;;;;;;-17.52;71.17;101144.44;5039621;28;20482;-59
2022/01/25 12:16:57;;;;;;;12.23;4.85;;;;;;;-17.60;71.58;101137.72;5039515;28;20091;-59
2022/01/25 12:19:38;;;;;;;8.20;5.20;;;;;;;-17.43;71.86;101142.91;5039525;28;20042;-59
2022/01/25 12:22:15;;;;;;;9.98;4.38;;;;;;;-17.38;71.98;101150.03;5039224;28;20339;-58
2022/01/25 12:25:02;;;;;;;11.75;4.88;;;;;;;-17.59;71.57;101158.56;5038623;28;20049;-58
2022/01/25 12:27:46;;;;;;;8.10;4.93;;;;;;;-18.23;71.39;101090.09;5019530;28;20077;-58
2022/01/25 12:30:30;;;;;;;7.03;5.80;;;;;;;-18.32;71.80;101118.31;5037231;28;20141;-58
2022/01/25 12:33:03;;;;;;;9.02;5.13;;;;;;;-17.98;72.82;101156.94;5036972;28;20069;-58
2022/01/25 12:35:44;;;;;;;5.55;4.20;;;;;;;-18.49;73.22;101053.22;5039210;28;20120;-60
2022/01/25 12:38:18;;;;;;;3.65;3.30;;;;;;;-18.14;73.10;101138.47;5038601;28;20221;-57
2022/01/25 12:41:10;;;;;;;5.53;3.85;;;;;;;-18.30;72.85;101144.28;5038897;28;20057;-60
2022/01/25 12:43:51;;;;;;;5.35;4.07;;;;;;;-18.57;73.15;101109.66;5038659;28;20053;-60
2022/01/25 12:46:24;;;;;;;4.57;4.05;;;;;;;-18.13;73.48;101155.25;5039042;28;20128;-59
2022/01/25 12:48:57;;;;;;;4.68;3.78;;;;;;;-18.33;73.49;101136.44;5039019;28;20049;-59
2022/01/25 12:51:30;;;;;;;6.70;4.40;;;;;;;-18.27;74.13;101127.19;5038867;28;20069;-58
2022/01/25 12:54:02;;;;;;;46.83;11.60;;;;;;;-18.23;74.14;101147.47;5037911;28;20080;-58
2022/01/25 12:56:43;;;;;;;8.70;4.85;;;;;;;-18.31;74.66;101152.47;5038530;28;20061;-58
2022/01/25 12:59:18;;;;;;;7.32;4.40;;;;;;;-18.32;75.37;101155.72;5038251;28;20119;-58